createdAt,value
2022-12-28T00:01:31.119Z,7.47
2022-12-28T00:06:28.821Z,5.90
2022-12-28T00:08:57.173Z,7.22
2022-12-28T00:11:28.081Z,5.18
2022-12-28T00:14:01.092Z,5.50
2022-12-28T00:16:29.352Z,4.63
2022-12-28T00:18:58.390Z,6.47
2022-12-28T00:21:25.890Z,6.10
2022-12-28T00:23:57.382Z,5.43
2022-12-28T00:26:27.501Z,6.00
2022-12-28T00:28:58.371Z,6.03
2022-12-28T00:31:28.755Z,6.35
2022-12-28T00:33:55.524Z,6.28
2022-12-28T00:36:22.278Z,4.25
2022-12-28T00:38:49.013Z,6.45
2022-12-28T00:41:15.828Z,6.68
2022-12-28T00:43:42.613Z,5.72
2022-12-28T00:46:10.245Z,6.32
2022-12-28T00:48:36.989Z,5.50
2022-12-28T00:51:08.256Z,5.95
2022-12-28T00:53:35.026Z,5.38
2022-12-28T00:56:10.044Z,4.18
2022-12-28T00:58:36.937Z,5.90
2022-12-28T01:01:05.123Z,6.00
2022-12-28T01:03:32.352Z,5.47
2022-12-28T01:05:59.053Z,5.15
2022-12-28T01:08:25.756Z,4.25
2022-12-28T01:10:52.530Z,4.75
2022-12-28T01:13:19.237Z,5.95
2022-12-28T01:15:45.926Z,4.55
2022-12-28T01:18:12.816Z,4.63
2022-12-28T01:20:40.584Z,8.40
2022-12-28T01:23:07.477Z,7.53
2022-12-28T01:25:34.620Z,4.70
2022-12-28T01:28:01.473Z,5.93
2022-12-28T01:30:30.278Z,5.82
2022-12-28T01:32:59.677Z,4.13
2022-12-28T01:35:26.659Z,5.68
2022-12-28T01:37:53.458Z,5.25
2022-12-28T01:40:20.143Z,4.03
2022-12-28T01:42:46.860Z,3.92
2022-12-28T01:45:22.097Z,4.78
2022-12-28T01:47:52.687Z,4.63
2022-12-28T01:50:25.738Z,5.03
2022-12-28T01:52:56.811Z,4.15
2022-12-28T01:55:31.116Z,4.25
2022-12-28T01:58:11.473Z,6.53
2022-12-28T02:00:39.154Z,4.53
2022-12-28T02:03:22.712Z,4.40
2022-12-28T02:05:54.043Z,3.88
2022-12-28T02:08:38.604Z,3.70
2022-12-28T02:11:06.469Z,4.40
2022-12-28T02:13:34.330Z,4.25
2022-12-28T02:16:01.176Z,4.32
2022-12-28T02:18:28.447Z,3.42
2022-12-28T02:20:58.185Z,4.10
2022-12-28T02:23:55.452Z,4.30
2022-12-28T02:26:44.715Z,4.82
2022-12-28T02:29:18.984Z,4.05
2022-12-28T02:32:23.748Z,3.42
2022-12-28T02:35:02.694Z,4.10
2022-12-28T02:38:00.942Z,3.85
2022-12-28T02:40:37.661Z,3.83
2022-12-28T02:43:04.443Z,3.55
2022-12-28T02:45:59.358Z,2.97
2022-12-28T02:48:44.933Z,4.72
2022-12-28T02:51:29.558Z,3.83
2022-12-28T02:54:08.687Z,3.05
2022-12-28T02:57:09.167Z,4.50
2022-12-28T03:00:02.777Z,3.83
2022-12-28T03:03:06.384Z,3.90
2022-12-28T03:06:03.699Z,3.38
2022-12-28T03:08:56.213Z,3.97
2022-12-28T03:11:36.057Z,4.78
2022-12-28T03:14:09.090Z,5.55
2022-12-28T03:17:00.440Z,2.75
2022-12-28T03:19:56.260Z,2.95
2022-12-28T03:22:43.650Z,5.03
2022-12-28T03:25:38.443Z,5.32
2022-12-28T03:28:27.460Z,2.88
2022-12-28T03:31:06.432Z,3.15
2022-12-28T03:33:49.143Z,3.40
2022-12-28T03:36:37.679Z,2.95
2022-12-28T03:39:30.721Z,2.45
2022-12-28T03:42:34.262Z,4.00
2022-12-28T03:45:45.855Z,3.20
2022-12-28T03:48:06.038Z,2.60
2022-12-28T03:50:38.322Z,2.95
2022-12-28T03:53:05.174Z,4.50
2022-12-28T03:55:31.983Z,2.55
2022-12-28T03:57:58.700Z,2.72
2022-12-28T04:00:25.385Z,3.65
2022-12-28T04:02:52.233Z,2.63
2022-12-28T04:05:19.103Z,2.55
2022-12-28T04:07:45.934Z,2.47
2022-12-28T04:10:12.855Z,3.38
2022-12-28T04:12:39.661Z,2.92
2022-12-28T04:15:07.207Z,2.70
2022-12-28T04:17:33.928Z,2.83
2022-12-28T04:20:00.609Z,2.10
2022-12-28T04:22:27.375Z,2.00
2022-12-28T04:24:54.061Z,2.38
2022-12-28T04:27:20.791Z,4.22
2022-12-28T04:29:47.469Z,1.75
2022-12-28T04:32:14.184Z,2.95
2022-12-28T04:34:46.445Z,2.50
2022-12-28T04:37:15.073Z,2.78
2022-12-28T04:39:55.824Z,2.00
2022-12-28T04:42:25.613Z,3.38
2022-12-28T04:44:52.416Z,2.65
2022-12-28T04:47:19.160Z,2.67
2022-12-28T04:49:45.929Z,2.67
2022-12-28T04:52:12.862Z,2.78
2022-12-28T04:54:39.648Z,2.05
2022-12-28T04:57:07.033Z,2.30
2022-12-28T04:59:33.847Z,2.67
2022-12-28T05:02:00.831Z,4.00
2022-12-28T05:04:27.699Z,3.05
2022-12-28T05:06:54.425Z,2.03
2022-12-28T05:09:21.165Z,4.07
2022-12-28T05:11:47.873Z,2.28
2022-12-28T05:14:14.880Z,2.53
2022-12-28T05:16:42.155Z,1.95
2022-12-28T05:19:09.065Z,3.75
2022-12-28T05:21:36.272Z,3.45
2022-12-28T05:24:03.054Z,3.13
2022-12-28T05:26:30.297Z,2.72
2022-12-28T05:28:58.509Z,3.38
2022-12-28T05:31:25.751Z,2.25
2022-12-28T05:33:53.033Z,3.47
2022-12-28T05:36:22.361Z,3.97
2022-12-28T05:38:49.107Z,4.23
2022-12-28T05:41:18.865Z,2.55
2022-12-28T05:43:46.382Z,3.22
2022-12-28T05:46:25.675Z,2.90
2022-12-28T05:48:54.983Z,4.43
2022-12-28T05:51:24.004Z,2.28
2022-12-28T05:53:51.051Z,2.67
2022-12-28T05:56:23.444Z,2.70
2022-12-28T05:59:01.907Z,2.45
2022-12-28T06:01:31.519Z,2.55
2022-12-28T06:04:07.147Z,3.15
2022-12-28T06:06:36.060Z,3.20
2022-12-28T06:09:03.846Z,3.33
2022-12-28T06:11:30.778Z,2.42
2022-12-28T06:13:59.445Z,2.15
2022-12-28T06:16:28.903Z,2.50
2022-12-28T06:18:55.697Z,4.47
2022-12-28T06:21:33.601Z,3.80
2022-12-28T06:24:02.402Z,2.80
2022-12-28T06:26:31.072Z,3.05
2022-12-28T06:28:58.369Z,2.22
2022-12-28T06:31:27.279Z,2.50
2022-12-28T06:33:57.109Z,2.55
2022-12-28T06:36:26.688Z,2.28
2022-12-28T06:38:55.477Z,2.00
2022-12-28T06:41:23.183Z,3.42
2022-12-28T06:43:51.021Z,2.38
2022-12-28T06:46:20.170Z,2.83
2022-12-28T06:48:47.151Z,2.75
2022-12-28T06:51:15.949Z,3.97
2022-12-28T06:53:43.434Z,3.17
2022-12-28T06:56:18.713Z,2.92
2022-12-28T06:58:46.585Z,2.45
2022-12-28T07:01:17.315Z,3.13
2022-12-28T07:03:45.737Z,3.13
2022-12-28T07:06:14.282Z,2.53
2022-12-28T07:08:41.018Z,3.78
2022-12-28T07:11:13.392Z,3.42
2022-12-28T07:13:40.234Z,2.90
2022-12-28T07:16:11.234Z,2.78
2022-12-28T07:18:38.304Z,2.45
2022-12-28T07:21:07.797Z,2.13
2022-12-28T07:23:35.179Z,3.25
2022-12-28T07:26:14.489Z,2.97
2022-12-28T07:28:43.300Z,2.60
2022-12-28T07:31:19.503Z,2.25
2022-12-28T07:33:47.411Z,3.60
2022-12-28T07:36:16.857Z,2.63
2022-12-28T07:38:44.353Z,3.25
2022-12-28T07:41:13.474Z,2.65
2022-12-28T07:43:40.618Z,2.25
2022-12-28T07:46:20.010Z,2.65
2022-12-28T07:48:47.841Z,1.90
2022-12-28T07:51:32.070Z,3.13
2022-12-28T07:53:59.906Z,3.50
2022-12-28T07:56:28.291Z,4.10
2022-12-28T07:58:58.203Z,3.63
2022-12-28T08:01:27.674Z,2.63
2022-12-28T08:03:56.103Z,2.55
2022-12-28T08:06:23.891Z,2.78
2022-12-28T08:08:53.201Z,2.47
2022-12-28T08:11:22.620Z,4.47
2022-12-28T08:13:52.532Z,2.13
2022-12-28T08:16:20.633Z,2.67
2022-12-28T08:18:48.896Z,2.10
2022-12-28T08:21:20.687Z,3.55
2022-12-28T08:23:47.701Z,2.78
2022-12-28T08:26:17.628Z,1.92
2022-12-28T08:28:45.911Z,3.03
2022-12-28T08:31:16.247Z,2.53
2022-12-28T08:33:43.364Z,2.03
2022-12-28T08:36:11.193Z,4.40
2022-12-28T08:38:38.968Z,4.22
2022-12-28T08:41:07.788Z,2.35
2022-12-28T08:43:35.313Z,3.42
2022-12-28T08:46:04.155Z,4.38
2022-12-28T08:48:31.457Z,2.42
2022-12-28T08:51:04.503Z,4.40
2022-12-28T08:53:31.275Z,3.70
2022-12-28T08:56:08.219Z,3.03
2022-12-28T08:58:34.904Z,3.35
2022-12-28T09:01:10.158Z,3.03
2022-12-28T09:03:41.991Z,2.50
2022-12-28T09:06:11.694Z,3.15
2022-12-28T09:08:38.664Z,3.28
2022-12-28T09:11:08.489Z,3.13
2022-12-28T09:13:35.599Z,2.85
2022-12-28T09:16:05.682Z,2.38
2022-12-28T09:18:32.727Z,3.97
2022-12-28T09:21:11.553Z,3.65
2022-12-28T09:23:38.261Z,2.15
2022-12-28T09:26:06.959Z,2.50
2022-12-28T09:28:33.753Z,3.95
2022-12-28T09:31:06.677Z,7.93
2022-12-28T09:34:33.808Z,3.70
2022-12-28T09:36:41.740Z,1.75
2022-12-28T09:39:20.785Z,3.50
2022-12-28T09:42:14.831Z,2.08
2022-12-28T09:44:57.389Z,1.70
2022-12-28T09:47:47.536Z,3.88
2022-12-28T09:50:25.819Z,2.33
2022-12-28T09:53:06.837Z,1.85
2022-12-28T09:55:39.300Z,1.90
2022-12-28T09:58:14.207Z,1.65
2022-12-28T10:01:02.134Z,2.72
2022-12-28T10:03:35.492Z,3.80
2022-12-28T10:06:03.493Z,1.92
2022-12-28T10:08:30.875Z,1.63
2022-12-28T10:11:01.865Z,2.35
2022-12-28T10:13:55.054Z,3.08
2022-12-28T10:16:24.929Z,2.03
2022-12-28T10:18:52.196Z,1.45
2022-12-28T10:21:26.821Z,1.90
2022-12-28T10:26:47.919Z,1.40
2022-12-28T10:29:22.499Z,1.75
2022-12-28T10:32:02.434Z,1.80
2022-12-28T10:34:33.786Z,2.25
2022-12-28T10:37:15.403Z,1.88
2022-12-28T10:39:56.682Z,2.10
2022-12-28T10:42:28.948Z,1.85
2022-12-28T10:45:06.301Z,1.98
2022-12-28T10:47:42.178Z,2.47
2022-12-28T10:50:38.332Z,3.38
2022-12-28T10:53:05.748Z,2.00
2022-12-28T10:55:33.861Z,2.92
2022-12-28T10:58:33.108Z,2.50
2022-12-28T11:01:26.361Z,2.50
2022-12-28T11:03:55.899Z,3.03
2022-12-28T11:06:27.459Z,2.70
2022-12-28T11:09:12.921Z,2.00
2022-12-28T11:11:40.081Z,2.00
2022-12-28T11:14:13.557Z,4.28
2022-12-28T11:16:41.199Z,2.35
2022-12-28T11:19:08.128Z,2.92
2022-12-28T11:21:36.296Z,3.03
2022-12-28T11:24:04.276Z,1.85
2022-12-28T11:26:32.883Z,3.85
2022-12-28T11:29:01.790Z,4.20
2022-12-28T11:31:37.588Z,2.65
2022-12-28T11:34:07.032Z,2.78
2022-12-28T11:36:39.388Z,3.00
2022-12-28T11:39:42.931Z,2.97
2022-12-28T11:42:37.983Z,2.00
2022-12-28T11:44:56.776Z,2.33
2022-12-28T11:47:32.826Z,2.97
2022-12-28T11:50:34.477Z,3.08
2022-12-28T11:53:03.419Z,3.33
2022-12-28T11:55:50.829Z,2.60
2022-12-28T11:58:36.292Z,2.22
2022-12-28T12:01:03.084Z,1.95
2022-12-28T12:03:57.942Z,3.58
2022-12-28T12:06:47.052Z,2.45
2022-12-28T12:09:23.673Z,2.35
2022-12-28T12:11:56.051Z,2.47
2022-12-28T12:14:47.449Z,2.05
2022-12-28T12:17:31.491Z,3.05
2022-12-28T12:20:03.003Z,2.50
2022-12-28T12:22:34.339Z,3.05
2022-12-28T12:25:07.393Z,2.72
2022-12-28T12:27:39.547Z,1.90
2022-12-28T12:30:15.931Z,2.53
2022-12-28T12:33:06.605Z,2.22
2022-12-28T12:36:10.722Z,1.92
2022-12-28T12:38:53.904Z,1.88
2022-12-28T12:41:26.398Z,1.00
2022-12-28T12:44:05.142Z,4.05
2022-12-28T12:47:05.469Z,2.65
2022-12-28T12:49:46.897Z,0.70
2022-12-28T12:52:42.525Z,3.05
2022-12-28T12:55:27.463Z,0.93
2022-12-28T12:57:58.627Z,1.38
2022-12-28T13:01:05.842Z,1.85
2022-12-28T13:03:44.314Z,2.40
2022-12-28T13:06:15.287Z,3.92
2022-12-28T13:09:05.716Z,4.00
2022-12-28T13:11:37.419Z,4.60
2022-12-28T13:14:05.178Z,1.58
2022-12-28T13:16:32.919Z,0.98
2022-12-28T13:19:01.983Z,1.60
2022-12-28T13:21:31.172Z,1.00
2022-12-28T13:23:58.000Z,1.27
2022-12-28T13:26:29.574Z,1.30
2022-12-28T13:29:02.781Z,1.60
2022-12-28T13:31:38.653Z,2.15
2022-12-28T13:34:12.641Z,1.65
2022-12-28T13:36:53.696Z,1.38
2022-12-28T13:39:21.759Z,1.98
2022-12-28T13:41:50.178Z,2.55
2022-12-28T13:44:33.651Z,2.15
2022-12-28T13:47:10.312Z,1.55
2022-12-28T13:50:03.678Z,1.10
2022-12-28T13:52:58.998Z,1.27
2022-12-28T13:55:39.978Z,2.35
2022-12-28T13:58:16.723Z,2.25
2022-12-28T14:00:49.096Z,1.48
2022-12-28T14:03:17.183Z,1.70
2022-12-28T14:05:59.944Z,1.13
2022-12-28T14:08:29.506Z,2.85
2022-12-28T14:10:56.708Z,2.70
2022-12-28T14:13:24.077Z,2.92
2022-12-28T14:15:51.668Z,2.50
2022-12-28T14:18:19.165Z,1.98
2022-12-28T14:20:56.570Z,1.60
2022-12-28T14:23:26.396Z,2.08
2022-12-28T14:25:55.764Z,4.00
2022-12-28T14:28:43.422Z,5.03
2022-12-28T14:31:14.057Z,4.18
2022-12-28T14:33:52.610Z,4.75
2022-12-28T14:36:39.266Z,3.17
2022-12-28T14:39:06.638Z,2.90
2022-12-28T14:41:35.630Z,4.38
2022-12-28T14:44:06.163Z,3.83
2022-12-28T14:46:41.224Z,2.70
2022-12-28T14:49:26.528Z,1.90
2022-12-28T14:51:53.245Z,1.92
2022-12-28T14:54:23.092Z,1.98
2022-12-28T14:56:59.423Z,3.45
2022-12-28T14:59:31.352Z,3.67
2022-12-28T15:01:58.499Z,3.05
2022-12-28T15:04:33.889Z,3.20
2022-12-28T15:07:00.678Z,2.60
2022-12-28T15:09:27.366Z,3.42
2022-12-28T15:12:20.506Z,3.78
2022-12-28T15:14:48.403Z,4.50
2022-12-28T15:17:15.780Z,3.80
2022-12-28T15:19:44.943Z,5.65
2022-12-28T15:22:12.806Z,3.88
2022-12-28T15:24:41.421Z,6.05
2022-12-28T15:27:08.149Z,3.97
2022-12-28T15:32:21.779Z,4.80
2022-12-28T15:34:48.507Z,3.15
2022-12-28T15:37:15.188Z,3.80
2022-12-28T15:39:41.900Z,2.72
2022-12-28T15:42:08.835Z,2.80
2022-12-28T15:44:35.573Z,2.63
2022-12-28T15:47:02.341Z,3.92
2022-12-28T15:49:29.189Z,2.97
2022-12-28T15:51:55.952Z,4.45
2022-12-28T15:54:22.658Z,5.00
2022-12-28T15:56:54.531Z,6.75
2022-12-28T15:59:21.649Z,3.33
2022-12-28T16:01:48.662Z,3.22
2022-12-28T16:04:15.665Z,2.53
2022-12-28T16:06:45.073Z,4.00
2022-12-28T16:09:13.436Z,4.22
2022-12-28T16:11:41.124Z,4.07
2022-12-28T16:14:12.893Z,2.90
2022-12-28T16:16:40.534Z,4.10
2022-12-28T16:19:08.808Z,4.05
2022-12-28T16:21:36.168Z,6.93
2022-12-28T16:24:03.268Z,4.47
2022-12-28T16:26:30.058Z,3.67
2022-12-28T16:28:59.497Z,4.18
2022-12-28T16:31:29.291Z,4.50
2022-12-28T16:34:01.992Z,5.03
2022-12-28T16:36:29.237Z,3.90
2022-12-28T16:38:56.307Z,4.10
2022-12-28T16:41:24.036Z,5.00
2022-12-28T16:43:51.327Z,5.93
2022-12-28T16:46:19.024Z,4.35
2022-12-28T16:48:45.824Z,4.30
2022-12-28T16:51:12.616Z,5.00
2022-12-28T16:53:39.570Z,6.88
2022-12-28T16:56:06.897Z,5.47
2022-12-28T16:58:33.880Z,5.50
2022-12-28T17:01:07.551Z,5.70
2022-12-28T17:03:35.381Z,5.68
2022-12-28T17:06:02.279Z,5.70
2022-12-28T17:08:29.356Z,5.80
2022-12-28T17:10:56.251Z,6.50
2022-12-28T17:13:22.999Z,11.75
2022-12-28T17:15:50.257Z,5.18
2022-12-28T17:18:17.087Z,5.75
2022-12-28T17:20:44.925Z,6.93
2022-12-28T17:23:11.981Z,10.32
2022-12-28T17:25:38.900Z,8.40
2022-12-28T17:28:05.625Z,7.85
2022-12-28T17:30:33.776Z,7.20
2022-12-28T17:33:00.743Z,7.95
2022-12-28T17:35:27.718Z,7.38
2022-12-28T17:37:54.458Z,8.18
2022-12-28T17:40:21.248Z,7.93
2022-12-28T17:42:48.230Z,9.98
2022-12-28T17:45:15.120Z,7.68
2022-12-28T17:47:41.878Z,8.27
2022-12-28T17:50:09.108Z,8.43
2022-12-28T17:52:35.906Z,8.18
2022-12-28T17:55:03.515Z,9.25
2022-12-28T17:57:34.063Z,8.52
2022-12-28T18:00:06.527Z,8.95
2022-12-28T18:02:33.530Z,7.63
2022-12-28T18:05:00.414Z,8.75
2022-12-28T18:07:27.551Z,7.90
2022-12-28T18:09:54.352Z,6.20
2022-12-28T18:12:21.226Z,6.93
2022-12-28T18:14:48.008Z,6.40
2022-12-28T18:17:17.515Z,5.88
2022-12-28T18:19:44.347Z,6.47
2022-12-28T18:22:11.054Z,5.72
2022-12-28T18:24:37.852Z,6.53
2022-12-28T18:27:04.629Z,4.97
2022-12-28T18:29:31.389Z,4.90
2022-12-28T18:31:58.091Z,6.47
2022-12-28T18:34:24.955Z,8.32
2022-12-28T18:36:51.636Z,6.22
2022-12-28T18:39:18.407Z,5.75
2022-12-28T18:41:45.159Z,4.68
2022-12-28T18:44:11.963Z,7.50
2022-12-28T18:46:38.808Z,9.32
2022-12-28T18:49:05.596Z,7.30
2022-12-28T18:51:32.309Z,6.60
2022-12-28T18:53:59.048Z,8.48
2022-12-28T18:56:25.737Z,7.55
2022-12-28T18:58:55.621Z,5.90
2022-12-28T19:04:12.293Z,6.32
2022-12-28T19:06:39.509Z,6.50
2022-12-28T19:09:07.720Z,6.28
2022-12-28T19:11:35.212Z,8.05
2022-12-28T19:14:03.354Z,7.25
2022-12-28T19:16:31.893Z,4.68
2022-12-28T19:19:00.427Z,6.47
2022-12-28T19:21:28.705Z,5.13
2022-12-28T19:23:58.477Z,6.13
2022-12-28T19:26:25.682Z,5.25
2022-12-28T19:28:52.934Z,4.82
2022-12-28T19:31:19.849Z,5.13
2022-12-28T19:33:46.830Z,5.10
2022-12-28T19:36:13.711Z,4.43
2022-12-28T19:38:40.435Z,6.15
2022-12-28T19:41:13.345Z,4.60
2022-12-28T19:43:40.506Z,6.80
2022-12-28T19:46:11.661Z,5.88
2022-12-28T19:48:38.954Z,4.20
2022-12-28T19:51:06.383Z,5.70
2022-12-28T19:53:33.096Z,4.88
2022-12-28T19:56:06.109Z,4.22
2022-12-28T19:58:34.617Z,4.55
2022-12-28T20:01:18.427Z,4.70
2022-12-28T20:03:46.661Z,5.40
2022-12-28T20:06:19.227Z,5.10
2022-12-28T20:08:47.474Z,4.63
2022-12-28T20:11:14.422Z,3.92
2022-12-28T20:13:41.948Z,7.38
2022-12-28T20:16:09.629Z,5.78
2022-12-28T20:18:36.635Z,5.25
2022-12-28T20:21:22.835Z,6.65
2022-12-28T20:23:51.369Z,5.80
2022-12-28T20:26:19.857Z,6.95
2022-12-28T20:28:48.995Z,9.20
2022-12-28T20:31:15.819Z,5.22
2022-12-28T20:33:43.658Z,5.13
2022-12-28T20:36:18.796Z,4.93
2022-12-28T20:38:46.592Z,6.22
2022-12-28T20:41:46.857Z,4.28
2022-12-28T20:46:43.795Z,5.03
2022-12-28T20:49:11.052Z,5.07
2022-12-28T20:51:37.770Z,5.95
2022-12-28T20:54:04.940Z,5.72
2022-12-28T20:56:32.088Z,4.82
2022-12-28T20:58:58.968Z,5.82
2022-12-28T21:01:25.857Z,5.03
2022-12-28T21:03:52.734Z,5.57
2022-12-28T21:06:19.532Z,4.90
2022-12-28T21:08:46.282Z,5.22
2022-12-28T21:11:13.184Z,4.30
2022-12-28T21:13:44.161Z,4.88
2022-12-28T21:16:13.127Z,5.05
2022-12-28T21:18:39.953Z,6.20
2022-12-28T21:21:12.996Z,6.43
2022-12-28T21:23:39.733Z,4.47
2022-12-28T21:26:09.758Z,4.82
2022-12-28T21:28:36.495Z,4.82
2022-12-28T21:31:04.945Z,4.57
2022-12-28T21:33:32.884Z,5.90
2022-12-28T21:36:11.087Z,4.55
2022-12-28T21:38:39.249Z,4.35
2022-12-28T21:41:08.800Z,6.35
2022-12-28T21:43:36.123Z,4.60
2022-12-28T21:46:14.949Z,5.47
2022-12-28T21:48:42.435Z,4.97
2022-12-28T21:51:30.239Z,5.18
2022-12-28T21:53:57.832Z,4.05
2022-12-28T21:56:24.651Z,4.40
2022-12-28T21:58:51.819Z,3.85
2022-12-28T22:01:37.089Z,7.15
2022-12-28T22:04:23.481Z,4.63
2022-12-28T22:06:50.220Z,4.45
2022-12-28T22:09:35.245Z,4.97
2022-12-28T22:12:20.878Z,3.65
2022-12-28T22:14:47.634Z,3.45
2022-12-28T22:17:14.756Z,4.38
2022-12-28T22:19:41.644Z,4.15
2022-12-28T22:22:08.396Z,4.95
2022-12-28T22:24:35.135Z,5.22
2022-12-28T22:27:01.841Z,3.70
2022-12-28T22:29:28.577Z,5.03
2022-12-28T22:31:55.370Z,4.30
2022-12-28T22:34:22.154Z,5.50
2022-12-28T22:36:48.881Z,5.30
2022-12-28T22:39:15.655Z,3.63
2022-12-28T22:41:42.348Z,3.72
2022-12-28T22:44:10.154Z,3.30
2022-12-28T22:46:36.910Z,4.03
2022-12-28T22:49:03.699Z,3.10
2022-12-28T22:51:30.429Z,3.70
2022-12-28T22:53:57.193Z,3.13
2022-12-28T22:56:23.915Z,5.18
2022-12-28T22:58:50.621Z,4.30
2022-12-28T23:01:19.377Z,3.25
2022-12-28T23:03:47.767Z,3.13
2022-12-28T23:06:17.605Z,2.42
2022-12-28T23:08:45.119Z,3.58
2022-12-28T23:11:34.075Z,3.45
2022-12-28T23:14:21.315Z,2.95
2022-12-28T23:16:49.051Z,3.42
2022-12-28T23:19:34.963Z,3.05
2022-12-28T23:22:21.400Z,3.08
2022-12-28T23:25:06.838Z,3.05
2022-12-28T23:27:38.523Z,3.15
2022-12-28T23:30:07.722Z,3.95
2022-12-28T23:32:34.461Z,3.15
2022-12-28T23:35:02.217Z,3.25
2022-12-28T23:37:28.978Z,3.45
2022-12-28T23:39:55.770Z,2.63
2022-12-28T23:42:22.555Z,3.53
2022-12-28T23:44:49.753Z,2.75
2022-12-28T23:47:17.015Z,3.42
2022-12-28T23:49:43.736Z,5.40
2022-12-28T23:52:10.606Z,3.08
2022-12-28T23:54:37.422Z,2.78
2022-12-28T23:57:04.627Z,2.83
2022-12-28T23:59:31.346Z,3.15
